AFR1227 LIPZ-LFPG
Flight info
| Callsign | AFR1227 |
|---|---|
| Flight time | 1h 25m |
| Altitude | 36000 |
| Route | ROKIB DCT SUXAN DCT RONAG DCT ELMUR DCT RIPUS DCT DITON DCT HOC/N0430F350 DCT MOROK DCT PENDU DCT JAVVU DCT GIVRI/N0432F360 DCT TINIL |
| Aircraft | A320/M-SDE3FGHIRWY/LB1 |
Departure
| Time | 2026-04-30 19:52 |
|---|---|
| Airport | Venice Marco Polo Airport (LIPZ) |
Arrival
| Time | 2026-04-30 21:17 |
|---|---|
| Airport | Charles de Gaulle International Airport (LFPG) |
| Time | Latitude | Longitude | Altitude | Speed | Heading |
|---|---|---|---|---|---|
| 2026-04-30 19:28 | 45.50427 | 12.34222 | 16 ft | 0 kts | 267° |
| 2026-04-30 19:44 | 45.50428 | 12.34227 | 16 ft | 3 kts | 267° |
| 2026-04-30 19:44 | 45.50429 | 12.34265 | 16 ft | 4 kts | 267° |
| 2026-04-30 19:45 | 45.50430 | 12.34296 | 16 ft | 4 kts | 263° |
| 2026-04-30 19:45 | 45.50438 | 12.34329 | 16 ft | 4 kts | 221° |
| 2026-04-30 19:45 | 45.50460 | 12.34344 | 19 ft | 3 kts | 180° |
| 2026-04-30 19:45 | 45.50465 | 12.34344 | 17 ft | 0 kts | 177° |
| 2026-04-30 19:47 | 45.50446 | 12.34345 | 16 ft | 6 kts | 177° |
| 2026-04-30 19:48 | 45.50372 | 12.34350 | 16 ft | 13 kts | 178° |
| 2026-04-30 19:48 | 45.50288 | 12.34344 | 16 ft | 12 kts | 209° |
| 2026-04-30 19:48 | 45.50231 | 12.34272 | 16 ft | 11 kts | 222° |
| 2026-04-30 19:48 | 45.50178 | 12.34204 | 16 ft | 11 kts | 222° |
| 2026-04-30 19:49 | 45.50084 | 12.34083 | 17 ft | 22 kts | 221° |
| 2026-04-30 19:49 | 45.49834 | 12.33763 | 16 ft | 26 kts | 222° |
| 2026-04-30 19:49 | 45.49708 | 12.33630 | 16 ft | 17 kts | 205° |
| 2026-04-30 19:50 | 45.49613 | 12.33524 | 16 ft | 18 kts | 222° |
| 2026-04-30 19:50 | 45.49530 | 12.33568 | 18 ft | 15 kts | 131° |
| 2026-04-30 19:50 | 45.49455 | 12.33685 | 16 ft | 17 kts | 132° |
| 2026-04-30 19:50 | 45.49413 | 12.33794 | 15 ft | 4 kts | 48° |
| 2026-04-30 19:51 | 45.49441 | 12.33810 | 15 ft | 4 kts | 34° |
| 2026-04-30 19:51 | 45.49486 | 12.33868 | 14 ft | 29 kts | 42° |
| 2026-04-30 19:51 | 45.49844 | 12.34328 | 13 ft | 105 kts | 42° |
| 2026-04-30 19:51 | 45.50542 | 12.35224 | 18 ft | 161 kts | 42° |
| 2026-04-30 19:52 | 45.51377 | 12.36309 | 638 ft | 160 kts | 46° |
| 2026-04-30 19:52 | 45.52186 | 12.37406 | 1379 ft | 159 kts | 49° |
| 2026-04-30 19:52 | 45.52986 | 12.38520 | 1949 ft | 170 kts | 51° |
| 2026-04-30 19:52 | 45.53574 | 12.40054 | 2269 ft | 188 kts | 82° |
| 2026-04-30 19:53 | 45.53515 | 12.41924 | 2966 ft | 192 kts | 101° |
| 2026-04-30 19:53 | 45.53284 | 12.43833 | 3703 ft | 198 kts | 98° |
| 2026-04-30 19:53 | 45.53058 | 12.45790 | 4467 ft | 202 kts | 97° |
| 2026-04-30 19:53 | 45.52862 | 12.47805 | 5209 ft | 207 kts | 97° |
| 2026-04-30 19:54 | 45.52661 | 12.49838 | 5936 ft | 212 kts | 97° |
| 2026-04-30 19:54 | 45.52205 | 12.51855 | 6658 ft | 219 kts | 128° |
| 2026-04-30 19:54 | 45.50945 | 12.53082 | 7356 ft | 227 kts | 165° |
| 2026-04-30 19:54 | 45.49376 | 12.52975 | 8012 ft | 233 kts | 203° |
| 2026-04-30 19:55 | 45.47967 | 12.51815 | 8717 ft | 236 kts | 216° |
| 2026-04-30 19:55 | 45.46818 | 12.50129 | 9342 ft | 241 kts | 245° |
| 2026-04-30 19:55 | 45.46443 | 12.47798 | 9737 ft | 252 kts | 281° |
| 2026-04-30 19:55 | 45.46945 | 12.45333 | 10126 ft | 271 kts | 291° |
| 2026-04-30 19:56 | 45.47542 | 12.42675 | 10486 ft | 293 kts | 290° |
| 2026-04-30 19:56 | 45.48168 | 12.39786 | 10774 ft | 317 kts | 290° |
| 2026-04-30 19:56 | 45.48830 | 12.36677 | 11146 ft | 335 kts | 290° |
| 2026-04-30 19:56 | 45.49504 | 12.33495 | 11818 ft | 342 kts | 290° |
| 2026-04-30 19:57 | 45.50198 | 12.30229 | 12567 ft | 347 kts | 290° |
| 2026-04-30 19:57 | 45.50910 | 12.26914 | 13309 ft | 352 kts | 291° |
| 2026-04-30 19:57 | 45.51634 | 12.23559 | 14044 ft | 357 kts | 291° |
| 2026-04-30 19:57 | 45.52372 | 12.20149 | 14706 ft | 361 kts | 291° |
| 2026-04-30 19:58 | 45.53116 | 12.16718 | 15388 ft | 364 kts | 291° |
| 2026-04-30 19:58 | 45.53873 | 12.13246 | 16051 ft | 367 kts | 291° |
| 2026-04-30 19:58 | 45.54639 | 12.09748 | 16718 ft | 370 kts | 291° |
| 2026-04-30 19:58 | 45.55410 | 12.06218 | 17398 ft | 373 kts | 291° |
| 2026-04-30 19:59 | 45.56185 | 12.02668 | 18051 ft | 377 kts | 291° |
| 2026-04-30 19:59 | 45.57035 | 11.99166 | 18682 ft | 377 kts | 298° |
| 2026-04-30 19:59 | 45.60049 | 11.93165 | 19833 ft | 371 kts | 322° |
| 2026-04-30 20:00 | 45.62113 | 11.90970 | 20415 ft | 369 kts | 333° |
| 2026-04-30 20:00 | 45.64407 | 11.89327 | 21018 ft | 369 kts | 338° |
| 2026-04-30 20:00 | 45.66732 | 11.87753 | 21621 ft | 371 kts | 338° |
| 2026-04-30 20:00 | 45.69068 | 11.86161 | 22212 ft | 373 kts | 338° |
| 2026-04-30 20:01 | 45.73758 | 11.82944 | 23317 ft | 378 kts | 338° |
| 2026-04-30 20:01 | 45.76142 | 11.81295 | 23852 ft | 381 kts | 339° |
| 2026-04-30 20:01 | 45.78540 | 11.79632 | 24276 ft | 384 kts | 339° |
| 2026-04-30 20:02 | 45.83377 | 11.76271 | 25110 ft | 388 kts | 339° |
| 2026-04-30 20:02 | 45.85819 | 11.74580 | 25479 ft | 390 kts | 339° |
| 2026-04-30 20:03 | 45.90741 | 11.71162 | 26235 ft | 396 kts | 336° |
| 2026-04-30 20:03 | 45.93083 | 11.68983 | 26592 ft | 404 kts | 326° |
| 2026-04-30 20:03 | 45.95122 | 11.66196 | 26975 ft | 414 kts | 316° |
| 2026-04-30 20:03 | 45.96900 | 11.62898 | 27355 ft | 419 kts | 313° |
| 2026-04-30 20:04 | 45.98663 | 11.59537 | 27675 ft | 422 kts | 313° |
| 2026-04-30 20:04 | 46.00451 | 11.56144 | 27963 ft | 426 kts | 313° |
| 2026-04-30 20:04 | 46.02249 | 11.52730 | 28301 ft | 429 kts | 313° |
| 2026-04-30 20:05 | 46.05854 | 11.45857 | 29003 ft | 434 kts | 313° |
| 2026-04-30 20:05 | 46.07675 | 11.42380 | 29346 ft | 436 kts | 313° |
| 2026-04-30 20:05 | 46.11356 | 11.35325 | 29977 ft | 440 kts | 313° |
| 2026-04-30 20:06 | 46.13174 | 11.31829 | 30251 ft | 443 kts | 313° |
| 2026-04-30 20:06 | 46.15028 | 11.28257 | 30511 ft | 445 kts | 313° |
| 2026-04-30 20:06 | 46.16887 | 11.24673 | 30737 ft | 446 kts | 313° |
| 2026-04-30 20:06 | 46.18754 | 11.21074 | 30977 ft | 446 kts | 313° |
| 2026-04-30 20:07 | 46.20612 | 11.17491 | 31264 ft | 446 kts | 313° |
| 2026-04-30 20:07 | 46.22466 | 11.13915 | 31589 ft | 444 kts | 313° |
| 2026-04-30 20:07 | 46.26140 | 11.06823 | 32236 ft | 442 kts | 313° |
| 2026-04-30 20:08 | 46.27977 | 11.03270 | 32586 ft | 440 kts | 313° |
| 2026-04-30 20:08 | 46.29814 | 10.99707 | 32959 ft | 439 kts | 313° |
| 2026-04-30 20:08 | 46.31634 | 10.96165 | 33330 ft | 438 kts | 313° |
| 2026-04-30 20:08 | 46.33446 | 10.92632 | 33713 ft | 436 kts | 313° |
| 2026-04-30 20:09 | 46.35251 | 10.89110 | 34083 ft | 435 kts | 313° |
| 2026-04-30 20:09 | 46.36441 | 10.86785 | 34200 ft | 434 kts | 313° |
| 2026-04-30 20:09 | 46.40593 | 10.78661 | 34280 ft | 428 kts | 313° |
| 2026-04-30 20:10 | 46.45311 | 10.69429 | 34263 ft | 427 kts | 313° |
| 2026-04-30 20:11 | 46.50630 | 10.58985 | 34253 ft | 431 kts | 313° |
| 2026-04-30 20:11 | 46.54168 | 10.52003 | 34195 ft | 431 kts | 313° |
| 2026-04-30 20:12 | 46.58278 | 10.45845 | 34214 ft | 418 kts | 329° |
| 2026-04-30 20:12 | 46.60650 | 10.43434 | 34215 ft | 416 kts | 331° |
| 2026-04-30 20:13 | 46.65414 | 10.38628 | 34209 ft | 416 kts | 331° |
| 2026-04-30 20:13 | 46.70179 | 10.33810 | 34216 ft | 417 kts | 331° |
| 2026-04-30 20:14 | 46.74913 | 10.28920 | 34221 ft | 420 kts | 327° |
| 2026-04-30 20:14 | 46.78777 | 10.22408 | 34213 ft | 438 kts | 307° |
| 2026-04-30 20:15 | 46.81296 | 10.14170 | 34218 ft | 446 kts | 299° |
| 2026-04-30 20:15 | 46.83690 | 10.05774 | 34222 ft | 447 kts | 299° |
| 2026-04-30 20:16 | 46.86069 | 9.97427 | 34215 ft | 447 kts | 299° |
| 2026-04-30 20:16 | 46.88457 | 9.89029 | 34194 ft | 447 kts | 299° |
| 2026-04-30 20:17 | 46.90833 | 9.80617 | 34196 ft | 447 kts | 298° |
| 2026-04-30 20:17 | 46.93203 | 9.72195 | 34196 ft | 446 kts | 297° |
| 2026-04-30 20:18 | 46.95565 | 9.63772 | 34204 ft | 447 kts | 297° |
| 2026-04-30 20:18 | 46.97915 | 9.55354 | 34209 ft | 447 kts | 297° |
| 2026-04-30 20:19 | 47.00247 | 9.46949 | 34209 ft | 448 kts | 298° |
| 2026-04-30 20:19 | 47.02596 | 9.38472 | 34187 ft | 448 kts | 297° |
| 2026-04-30 20:20 | 47.04944 | 9.29990 | 34197 ft | 449 kts | 297° |
| 2026-04-30 20:20 | 47.07291 | 9.21495 | 34214 ft | 449 kts | 297° |
| 2026-04-30 20:21 | 47.09611 | 9.13036 | 34217 ft | 449 kts | 297° |
| 2026-04-30 20:21 | 47.11940 | 9.04502 | 34222 ft | 449 kts | 296° |
| 2026-04-30 20:22 | 47.14260 | 8.95986 | 34236 ft | 450 kts | 296° |
| 2026-04-30 20:22 | 47.16572 | 8.87437 | 34244 ft | 450 kts | 295° |
| 2026-04-30 20:23 | 47.18793 | 8.78799 | 34256 ft | 451 kts | 294° |
| 2026-04-30 20:23 | 47.20951 | 8.70173 | 34262 ft | 451 kts | 294° |
| 2026-04-30 20:24 | 47.23131 | 8.61506 | 34248 ft | 451 kts | 294° |
| 2026-04-30 20:24 | 47.25309 | 8.52873 | 34250 ft | 451 kts | 294° |
| 2026-04-30 20:25 | 47.28579 | 8.39893 | 34251 ft | 452 kts | 294° |
| 2026-04-30 20:26 | 47.31853 | 8.26833 | 34229 ft | 453 kts | 293° |
| 2026-04-30 20:26 | 47.35100 | 8.13752 | 34250 ft | 453 kts | 293° |
| 2026-04-30 20:27 | 47.39403 | 7.96309 | 34256 ft | 453 kts | 293° |
| 2026-04-30 20:28 | 47.43669 | 7.78859 | 34256 ft | 453 kts | 293° |
| 2026-04-30 20:30 | 47.45968 | 7.55951 | 34256 ft | 462 kts | 266° |
| 2026-04-30 20:31 | 47.44068 | 7.27554 | 34234 ft | 464 kts | 266° |
| 2026-04-30 20:32 | 47.42419 | 7.03874 | 34232 ft | 464 kts | 265° |
| 2026-04-30 20:33 | 47.41408 | 6.89641 | 34232 ft | 465 kts | 265° |
| 2026-04-30 20:34 | 47.40379 | 6.75378 | 34225 ft | 465 kts | 265° |
| 2026-04-30 20:35 | 47.39326 | 6.61120 | 34215 ft | 465 kts | 265° |
| 2026-04-30 20:35 | 47.38270 | 6.46915 | 34210 ft | 465 kts | 264° |
| 2026-04-30 20:36 | 47.37549 | 6.37401 | 34213 ft | 465 kts | 264° |
| 2026-04-30 20:37 | 47.36462 | 6.23222 | 34200 ft | 465 kts | 264° |
| 2026-04-30 20:37 | 47.35725 | 6.13724 | 34196 ft | 465 kts | 264° |
| 2026-04-30 20:38 | 47.34970 | 6.04264 | 34199 ft | 464 kts | 263° |
| 2026-04-30 20:38 | 47.34203 | 5.94797 | 34195 ft | 464 kts | 263° |
| 2026-04-30 20:39 | 47.33015 | 5.80655 | 34186 ft | 464 kts | 263° |
| 2026-04-30 20:40 | 47.31869 | 5.66518 | 34187 ft | 464 kts | 263° |
| 2026-04-30 20:40 | 47.31104 | 5.57063 | 34186 ft | 463 kts | 263° |
| 2026-04-30 20:41 | 47.30590 | 5.42952 | 34185 ft | 462 kts | 281° |
| 2026-04-30 20:41 | 47.31445 | 5.38398 | 34185 ft | 460 kts | 293° |
| 2026-04-30 20:41 | 47.32910 | 5.34222 | 34182 ft | 458 kts | 305° |
| 2026-04-30 20:42 | 47.34911 | 5.30594 | 34182 ft | 455 kts | 317° |
| 2026-04-30 20:42 | 47.37359 | 5.27647 | 34179 ft | 452 kts | 329° |
| 2026-04-30 20:43 | 47.45557 | 5.20860 | 34178 ft | 452 kts | 333° |
| 2026-04-30 20:43 | 47.51042 | 5.16341 | 34169 ft | 453 kts | 333° |
| 2026-04-30 20:44 | 47.59279 | 5.09296 | 34123 ft | 458 kts | 326° |
| 2026-04-30 20:44 | 47.64227 | 5.03284 | 32239 ft | 466 kts | 321° |
| 2026-04-30 20:45 | 47.69188 | 4.97000 | 30498 ft | 467 kts | 320° |
| 2026-04-30 20:45 | 47.71627 | 4.93901 | 29761 ft | 463 kts | 320° |
| 2026-04-30 20:45 | 47.74063 | 4.90812 | 29022 ft | 459 kts | 321° |
| 2026-04-30 20:46 | 47.81104 | 4.81899 | 27763 ft | 432 kts | 321° |
| 2026-04-30 20:46 | 47.83381 | 4.79012 | 27200 ft | 428 kts | 321° |
| 2026-04-30 20:47 | 47.87859 | 4.73315 | 26097 ft | 422 kts | 321° |
| 2026-04-30 20:47 | 47.90068 | 4.70493 | 25703 ft | 416 kts | 320° |
| 2026-04-30 20:48 | 47.94354 | 4.64749 | 25175 ft | 414 kts | 318° |
| 2026-04-30 20:48 | 47.96460 | 4.61819 | 24939 ft | 414 kts | 318° |
| 2026-04-30 20:48 | 47.98559 | 4.58877 | 24659 ft | 410 kts | 318° |
| 2026-04-30 20:48 | 48.00638 | 4.55965 | 24174 ft | 408 kts | 318° |
| 2026-04-30 20:49 | 48.02703 | 4.53056 | 23652 ft | 408 kts | 318° |
| 2026-04-30 20:49 | 48.04803 | 4.50199 | 23063 ft | 406 kts | 320° |
| 2026-04-30 20:49 | 48.06943 | 4.47490 | 22565 ft | 402 kts | 322° |
| 2026-04-30 20:50 | 48.11279 | 4.42278 | 21554 ft | 397 kts | 323° |
| 2026-04-30 20:50 | 48.13413 | 4.39730 | 21038 ft | 395 kts | 323° |
| 2026-04-30 20:50 | 48.15549 | 4.37151 | 20532 ft | 393 kts | 322° |
| 2026-04-30 20:50 | 48.17665 | 4.34566 | 20049 ft | 390 kts | 322° |
| 2026-04-30 20:51 | 48.19754 | 4.31987 | 19546 ft | 388 kts | 322° |
| 2026-04-30 20:51 | 48.23843 | 4.26895 | 18782 ft | 380 kts | 322° |
| 2026-04-30 20:51 | 48.25213 | 4.25185 | 18469 ft | 379 kts | 321° |
| 2026-04-30 20:52 | 48.27607 | 4.21390 | 17821 ft | 377 kts | 310° |
| 2026-04-30 20:52 | 48.28711 | 4.19365 | 17504 ft | 375 kts | 310° |
| 2026-04-30 20:52 | 48.31996 | 4.13361 | 16728 ft | 365 kts | 310° |
| 2026-04-30 20:53 | 48.33588 | 4.10465 | 16607 ft | 353 kts | 310° |
| 2026-04-30 20:53 | 48.35131 | 4.07659 | 16436 ft | 344 kts | 310° |
| 2026-04-30 20:53 | 48.36644 | 4.04901 | 16120 ft | 340 kts | 310° |
| 2026-04-30 20:54 | 48.39636 | 3.99430 | 15403 ft | 336 kts | 310° |
| 2026-04-30 20:54 | 48.41111 | 3.96724 | 15094 ft | 333 kts | 310° |
| 2026-04-30 20:54 | 48.42566 | 3.94048 | 15192 ft | 330 kts | 310° |
| 2026-04-30 20:55 | 48.45461 | 3.88730 | 15207 ft | 332 kts | 310° |
| 2026-04-30 20:55 | 48.46970 | 3.85974 | 15202 ft | 341 kts | 310° |
| 2026-04-30 20:55 | 48.48450 | 3.83254 | 15205 ft | 332 kts | 310° |
| 2026-04-30 20:56 | 48.51366 | 3.77866 | 15209 ft | 330 kts | 310° |
| 2026-04-30 20:56 | 48.52816 | 3.75184 | 15209 ft | 330 kts | 310° |
| 2026-04-30 20:56 | 48.55470 | 3.69536 | 15209 ft | 331 kts | 303° |
| 2026-04-30 20:57 | 48.56723 | 3.66620 | 15210 ft | 331 kts | 303° |
| 2026-04-30 20:57 | 48.57976 | 3.63705 | 15204 ft | 331 kts | 303° |
| 2026-04-30 20:57 | 48.59230 | 3.60786 | 15204 ft | 331 kts | 303° |
| 2026-04-30 20:58 | 48.61732 | 3.54947 | 15208 ft | 331 kts | 303° |
| 2026-04-30 20:58 | 48.62971 | 3.52060 | 15210 ft | 331 kts | 303° |
| 2026-04-30 20:58 | 48.64225 | 3.49131 | 15208 ft | 331 kts | 303° |
| 2026-04-30 20:58 | 48.65476 | 3.46205 | 15203 ft | 332 kts | 303° |
| 2026-04-30 20:59 | 48.67776 | 3.40165 | 15200 ft | 332 kts | 291° |
| 2026-04-30 20:59 | 48.68619 | 3.36905 | 15198 ft | 333 kts | 291° |
| 2026-04-30 21:00 | 48.70302 | 3.30377 | 15201 ft | 332 kts | 291° |
| 2026-04-30 21:00 | 48.71960 | 3.23893 | 15202 ft | 332 kts | 291° |
| 2026-04-30 21:01 | 48.73631 | 3.17366 | 15200 ft | 332 kts | 291° |
| 2026-04-30 21:01 | 48.74473 | 3.14099 | 15199 ft | 332 kts | 291° |
| 2026-04-30 21:01 | 48.76143 | 3.07579 | 15192 ft | 331 kts | 291° |
| 2026-04-30 21:02 | 48.76973 | 3.04315 | 15198 ft | 332 kts | 291° |
| 2026-04-30 21:02 | 48.77793 | 3.01081 | 15194 ft | 331 kts | 291° |
| 2026-04-30 21:02 | 48.78623 | 2.97814 | 15192 ft | 331 kts | 291° |
| 2026-04-30 21:02 | 48.79452 | 2.94549 | 15068 ft | 332 kts | 291° |
| 2026-04-30 21:03 | 48.80277 | 2.91288 | 14827 ft | 330 kts | 291° |
| 2026-04-30 21:03 | 48.81098 | 2.88050 | 14589 ft | 328 kts | 291° |
| 2026-04-30 21:03 | 48.81916 | 2.84817 | 14351 ft | 327 kts | 290° |
| 2026-04-30 21:03 | 48.82731 | 2.81587 | 14116 ft | 326 kts | 290° |
| 2026-04-30 21:04 | 48.83541 | 2.78366 | 13874 ft | 325 kts | 290° |
| 2026-04-30 21:04 | 48.84345 | 2.75157 | 13614 ft | 325 kts | 290° |
| 2026-04-30 21:04 | 48.85942 | 2.68781 | 13095 ft | 321 kts | 290° |
| 2026-04-30 21:05 | 48.86729 | 2.65652 | 12841 ft | 319 kts | 290° |
| 2026-04-30 21:05 | 48.87518 | 2.62516 | 12545 ft | 315 kts | 290° |
| 2026-04-30 21:05 | 48.88302 | 2.59387 | 12125 ft | 316 kts | 290° |
| 2026-04-30 21:05 | 48.89072 | 2.56297 | 11708 ft | 316 kts | 290° |
| 2026-04-30 21:06 | 48.89846 | 2.53190 | 11295 ft | 316 kts | 290° |
| 2026-04-30 21:06 | 48.90617 | 2.50078 | 11073 ft | 309 kts | 290° |
| 2026-04-30 21:06 | 48.91282 | 2.46987 | 10713 ft | 306 kts | 281° |
| 2026-04-30 21:06 | 48.91496 | 2.43806 | 10347 ft | 303 kts | 268° |
| 2026-04-30 21:07 | 48.91343 | 2.40610 | 9923 ft | 302 kts | 263° |
| 2026-04-30 21:07 | 48.91165 | 2.37445 | 9570 ft | 299 kts | 263° |
| 2026-04-30 21:07 | 48.90988 | 2.34302 | 9186 ft | 296 kts | 264° |
| 2026-04-30 21:07 | 48.90813 | 2.31201 | 8808 ft | 293 kts | 264° |
| 2026-04-30 21:08 | 48.90638 | 2.28140 | 8437 ft | 289 kts | 263° |
| 2026-04-30 21:08 | 48.90462 | 2.25103 | 8041 ft | 286 kts | 263° |
| 2026-04-30 21:08 | 48.90294 | 2.22195 | 7895 ft | 274 kts | 264° |
| 2026-04-30 21:08 | 48.90130 | 2.19342 | 7498 ft | 272 kts | 262° |
| 2026-04-30 21:09 | 48.89958 | 2.16424 | 6797 ft | 283 kts | 263° |
| 2026-04-30 21:09 | 48.89781 | 2.13425 | 6328 ft | 283 kts | 263° |
| 2026-04-30 21:09 | 48.89623 | 2.10505 | 6115 ft | 272 kts | 263° |
| 2026-04-30 21:09 | 48.89564 | 2.07696 | 6017 ft | 259 kts | 276° |
| 2026-04-30 21:10 | 48.90207 | 2.05220 | 5913 ft | 249 kts | 306° |
| 2026-04-30 21:10 | 48.91531 | 2.03653 | 5817 ft | 248 kts | 336° |
| 2026-04-30 21:10 | 48.93233 | 2.03320 | 5711 ft | 251 kts | 8° |
| 2026-04-30 21:10 | 48.94822 | 2.04348 | 5620 ft | 251 kts | 40° |
| 2026-04-30 21:11 | 48.95921 | 2.06384 | 5516 ft | 250 kts | 59° |
| 2026-04-30 21:11 | 48.96808 | 2.08655 | 5413 ft | 250 kts | 63° |
| 2026-04-30 21:11 | 48.97302 | 2.11130 | 5308 ft | 244 kts | 95° |
| 2026-04-30 21:11 | 48.96956 | 2.13644 | 5211 ft | 242 kts | 105° |
| 2026-04-30 21:12 | 48.96934 | 2.16213 | 5106 ft | 246 kts | 84° |
| 2026-04-30 21:12 | 48.97168 | 2.18795 | 4995 ft | 247 kts | 85° |
| 2026-04-30 21:12 | 48.97345 | 2.21398 | 4832 ft | 249 kts | 86° |
| 2026-04-30 21:12 | 48.97491 | 2.23975 | 4529 ft | 245 kts | 89° |
| 2026-04-30 21:13 | 48.97634 | 2.26544 | 4210 ft | 242 kts | 88° |
| 2026-04-30 21:13 | 48.97777 | 2.29077 | 3895 ft | 239 kts | 87° |
| 2026-04-30 21:13 | 48.97917 | 2.31585 | 3584 ft | 235 kts | 88° |
| 2026-04-30 21:13 | 48.98055 | 2.34057 | 3278 ft | 233 kts | 89° |
| 2026-04-30 21:14 | 48.98192 | 2.36496 | 2985 ft | 230 kts | 89° |
| 2026-04-30 21:14 | 48.98323 | 2.38891 | 2684 ft | 222 kts | 89° |
| 2026-04-30 21:14 | 48.98452 | 2.41125 | 2388 ft | 207 kts | 89° |
| 2026-04-30 21:14 | 48.98571 | 2.43234 | 2110 ft | 193 kts | 90° |
| 2026-04-30 21:15 | 48.98685 | 2.45196 | 1868 ft | 179 kts | 90° |
| 2026-04-30 21:15 | 48.98793 | 2.47046 | 1655 ft | 169 kts | 90° |
| 2026-04-30 21:15 | 48.98895 | 2.48734 | 1473 ft | 153 kts | 90° |
| 2026-04-30 21:15 | 48.98964 | 2.50269 | 1294 ft | 137 kts | 91° |
| 2026-04-30 21:16 | 48.99031 | 2.51710 | 1097 ft | 134 kts | 87° |
| 2026-04-30 21:16 | 48.99103 | 2.53125 | 883 ft | 133 kts | 85° |
| 2026-04-30 21:16 | 48.99182 | 2.54485 | 683 ft | 127 kts | 85° |
| 2026-04-30 21:16 | 48.99258 | 2.55903 | 495 ft | 135 kts | 84° |
| 2026-04-30 21:17 | 48.99330 | 2.57288 | 362 ft | 123 kts | 85° |
| 2026-04-30 21:17 | 48.99393 | 2.58411 | 353 ft | 83 kts | 84° |
| 2026-04-30 21:17 | 48.99425 | 2.59042 | 351 ft | 44 kts | 85° |
| 2026-04-30 21:17 | 48.99490 | 2.59324 | 360 ft | 23 kts | 68° |
| 2026-04-30 21:18 | 48.99541 | 2.59504 | 358 ft | 18 kts | 65° |
| 2026-04-30 21:18 | 48.99595 | 2.59665 | 358 ft | 16 kts | 53° |
| 2026-04-30 21:18 | 48.99654 | 2.59691 | 361 ft | 6 kts | 356° |
| 2026-04-30 21:18 | 48.99695 | 2.59687 | 354 ft | 5 kts | 356° |
| 2026-04-30 21:19 | 48.99706 | 2.59686 | 354 ft | 0 kts | 355° |
| 2026-04-30 21:19 | 48.99729 | 2.59683 | 358 ft | 12 kts | 355° |
| 2026-04-30 21:19 | 48.99851 | 2.59667 | 354 ft | 20 kts | 355° |
| 2026-04-30 21:19 | 49.00029 | 2.59646 | 354 ft | 28 kts | 356° |
| 2026-04-30 21:20 | 49.00230 | 2.59622 | 354 ft | 29 kts | 355° |
| 2026-04-30 21:20 | 49.00438 | 2.59599 | 363 ft | 31 kts | 355° |
| 2026-04-30 21:20 | 49.00648 | 2.59571 | 354 ft | 28 kts | 355° |
| 2026-04-30 21:20 | 49.00847 | 2.59546 | 354 ft | 29 kts | 355° |
| 2026-04-30 21:21 | 49.00989 | 2.59511 | 357 ft | 15 kts | 317° |
| 2026-04-30 21:21 | 49.00998 | 2.59362 | 354 ft | 14 kts | 265° |
| 2026-04-30 21:21 | 49.00980 | 2.59073 | 358 ft | 18 kts | 258° |
| 2026-04-30 21:22 | 49.00949 | 2.58872 | 360 ft | 19 kts | 264° |
| 2026-04-30 21:22 | 49.00920 | 2.58328 | 354 ft | 15 kts | 265° |
| 2026-04-30 21:23 | 49.00912 | 2.58169 | 361 ft | 15 kts | 265° |
| 2026-04-30 21:23 | 49.00903 | 2.58019 | 354 ft | 14 kts | 265° |
| 2026-04-30 21:23 | 49.00893 | 2.57817 | 361 ft | 7 kts | 265° |
| 2026-04-30 21:24 | 49.00861 | 2.57730 | 359 ft | 17 kts | 204° |
| 2026-04-30 21:24 | 49.00803 | 2.57844 | 354 ft | 17 kts | 85° |
| 2026-04-30 21:24 | 49.00814 | 2.58022 | 356 ft | 14 kts | 86° |
| 2026-04-30 21:24 | 49.00770 | 2.58123 | 357 ft | 11 kts | 162° |
| 2026-04-30 21:25 | 49.00736 | 2.58036 | 363 ft | 4 kts | 244° |
| 2026-04-30 21:25 | 49.00722 | 2.58011 | 360 ft | 2 kts | 232° |
| 2026-04-30 21:25 | 49.00718 | 2.58003 | 359 ft | 0 kts | 232° |